sensor_id;sensor_type;location;lat;lon;timestamp;P1;durP1;ratioP1;P2;durP2;ratioP2
27744;SDS011;61387;48.112;8.616;2023-08-07T00:00:22;1.80;;;1.30;;
27744;SDS011;61387;48.112;8.616;2023-08-07T00:02:48;1.97;;;1.37;;
27744;SDS011;61387;48.112;8.616;2023-08-07T00:05:14;3.63;;;1.40;;
27744;SDS011;61387;48.112;8.616;2023-08-07T00:07:41;2.13;;;1.20;;
27744;SDS011;61387;48.112;8.616;2023-08-07T00:10:07;5.20;;;1.47;;
27744;SDS011;61387;48.112;8.616;2023-08-07T00:12:33;2.27;;;1.53;;
27744;SDS011;61387;48.112;8.616;2023-08-07T00:14:59;2.73;;;1.40;;
27744;SDS011;61387;48.112;8.616;2023-08-07T00:17:25;3.03;;;1.37;;
27744;SDS011;61387;48.112;8.616;2023-08-07T00:19:51;3.63;;;1.60;;
27744;SDS011;61387;48.112;8.616;2023-08-07T00:22:17;3.93;;;1.70;;
27744;SDS011;61387;48.112;8.616;2023-08-07T00:24:43;3.83;;;1.50;;
27744;SDS011;61387;48.112;8.616;2023-08-07T00:27:09;3.33;;;1.80;;
27744;SDS011;61387;48.112;8.616;2023-08-07T00:29:36;2.53;;;1.67;;
27744;SDS011;61387;48.112;8.616;2023-08-07T00:32:02;4.70;;;1.47;;
27744;SDS011;61387;48.112;8.616;2023-08-07T00:34:29;3.03;;;1.70;;
27744;SDS011;61387;48.112;8.616;2023-08-07T00:36:54;3.87;;;1.77;;
27744;SDS011;61387;48.112;8.616;2023-08-07T00:39:20;3.53;;;1.60;;
27744;SDS011;61387;48.112;8.616;2023-08-07T00:41:46;3.83;;;1.97;;
27744;SDS011;61387;48.112;8.616;2023-08-07T00:44:12;4.77;;;1.80;;
27744;SDS011;61387;48.112;8.616;2023-08-07T00:46:38;3.90;;;1.87;;
27744;SDS011;61387;48.112;8.616;2023-08-07T00:49:05;2.93;;;1.57;;
27744;SDS011;61387;48.112;8.616;2023-08-07T00:51:31;2.63;;;1.67;;
27744;SDS011;61387;48.112;8.616;2023-08-07T00:53:57;3.73;;;1.80;;
27744;SDS011;61387;48.112;8.616;2023-08-07T00:56:24;3.50;;;1.77;;
27744;SDS011;61387;48.112;8.616;2023-08-07T00:58:51;4.03;;;1.70;;
27744;SDS011;61387;48.112;8.616;2023-08-07T01:01:17;2.83;;;1.50;;
27744;SDS011;61387;48.112;8.616;2023-08-07T01:03:43;3.17;;;1.83;;
27744;SDS011;61387;48.112;8.616;2023-08-07T01:06:08;5.47;;;2.10;;
27744;SDS011;61387;48.112;8.616;2023-08-07T01:08:34;3.30;;;2.00;;
27744;SDS011;61387;48.112;8.616;2023-08-07T01:13:54;4.33;;;2.17;;
27744;SDS011;61387;48.112;8.616;2023-08-07T01:19:18;5.20;;;2.40;;
27744;SDS011;61387;48.112;8.616;2023-08-07T01:21:49;3.97;;;2.13;;
27744;SDS011;61387;48.112;8.616;2023-08-07T01:24:15;3.00;;;2.10;;
27744;SDS011;61387;48.112;8.616;2023-08-07T01:26:41;4.07;;;2.27;;
27744;SDS011;61387;48.112;8.616;2023-08-07T01:29:15;4.17;;;2.37;;
27744;SDS011;61387;48.112;8.616;2023-08-07T01:31:49;4.50;;;2.13;;
27744;SDS011;61387;48.112;8.616;2023-08-07T01:34:18;3.60;;;2.27;;
27744;SDS011;61387;48.112;8.616;2023-08-07T01:36:47;6.57;;;2.20;;
27744;SDS011;61387;48.112;8.616;2023-08-07T01:39:14;4.63;;;2.10;;
27744;SDS011;61387;48.112;8.616;2023-08-07T01:41:41;4.33;;;2.30;;
27744;SDS011;61387;48.112;8.616;2023-08-07T01:44:07;4.07;;;2.03;;
27744;SDS011;61387;48.112;8.616;2023-08-07T01:46:33;4.57;;;2.40;;
27744;SDS011;61387;48.112;8.616;2023-08-07T01:48:59;4.03;;;2.67;;
27744;SDS011;61387;48.112;8.616;2023-08-07T01:51:24;5.17;;;2.60;;
27744;SDS011;61387;48.112;8.616;2023-08-07T01:53:50;5.80;;;2.87;;
27744;SDS011;61387;48.112;8.616;2023-08-07T01:56:16;5.37;;;2.40;;
27744;SDS011;61387;48.112;8.616;2023-08-07T01:58:42;5.55;;;2.25;;
27744;SDS011;61387;48.112;8.616;2023-08-07T02:01:07;6.20;;;2.30;;
27744;SDS011;61387;48.112;8.616;2023-08-07T02:03:33;3.80;;;2.00;;
27744;SDS011;61387;48.112;8.616;2023-08-07T02:05:59;5.47;;;2.40;;
27744;SDS011;61387;48.112;8.616;2023-08-07T02:08:27;3.30;;;1.90;;
27744;SDS011;61387;48.112;8.616;2023-08-07T02:10:53;3.33;;;1.97;;
27744;SDS011;61387;48.112;8.616;2023-08-07T02:13:19;2.93;;;1.83;;
27744;SDS011;61387;48.112;8.616;2023-08-07T02:15:45;3.50;;;1.93;;
27744;SDS011;61387;48.112;8.616;2023-08-07T02:18:10;6.60;;;2.30;;
27744;SDS011;61387;48.112;8.616;2023-08-07T02:20:36;4.23;;;2.13;;
27744;SDS011;61387;48.112;8.616;2023-08-07T02:23:02;6.47;;;2.30;;
27744;SDS011;61387;48.112;8.616;2023-08-07T02:25:28;3.73;;;2.20;;
27744;SDS011;61387;48.112;8.616;2023-08-07T02:27:54;3.30;;;2.03;;
27744;SDS011;61387;48.112;8.616;2023-08-07T02:30:20;4.97;;;2.23;;
27744;SDS011;61387;48.112;8.616;2023-08-07T02:32:46;3.73;;;2.43;;
27744;SDS011;61387;48.112;8.616;2023-08-07T02:35:12;4.80;;;1.97;;
27744;SDS011;61387;48.112;8.616;2023-08-07T02:37:37;4.77;;;1.70;;
27744;SDS011;61387;48.112;8.616;2023-08-07T02:40:03;4.27;;;1.93;;
27744;SDS011;61387;48.112;8.616;2023-08-07T02:42:29;4.60;;;2.20;;
27744;SDS011;61387;48.112;8.616;2023-08-07T02:44:55;3.20;;;1.93;;
27744;SDS011;61387;48.112;8.616;2023-08-07T02:47:21;4.00;;;2.20;;
27744;SDS011;61387;48.112;8.616;2023-08-07T02:49:47;3.30;;;1.53;;
27744;SDS011;61387;48.112;8.616;2023-08-07T02:52:13;5.33;;;2.10;;
27744;SDS011;61387;48.112;8.616;2023-08-07T02:54:39;5.23;;;1.80;;
27744;SDS011;61387;48.112;8.616;2023-08-07T02:57:04;5.47;;;1.90;;
27744;SDS011;61387;48.112;8.616;2023-08-07T02:59:30;4.87;;;2.10;;
27744;SDS011;61387;48.112;8.616;2023-08-07T03:01:56;3.57;;;2.00;;
27744;SDS011;61387;48.112;8.616;2023-08-07T03:04:22;3.97;;;1.90;;
27744;SDS011;61387;48.112;8.616;2023-08-07T03:06:48;3.20;;;1.97;;
27744;SDS011;61387;48.112;8.616;2023-08-07T03:09:13;6.63;;;2.17;;
27744;SDS011;61387;48.112;8.616;2023-08-07T03:11:39;6.37;;;2.20;;
27744;SDS011;61387;48.112;8.616;2023-08-07T03:14:05;4.03;;;2.80;;
27744;SDS011;61387;48.112;8.616;2023-08-07T03:16:31;5.57;;;2.13;;
27744;SDS011;61387;48.112;8.616;2023-08-07T03:18:56;6.27;;;2.30;;
27744;SDS011;61387;48.112;8.616;2023-08-07T03:21:22;3.60;;;1.67;;
27744;SDS011;61387;48.112;8.616;2023-08-07T03:23:48;3.53;;;2.23;;
27744;SDS011;61387;48.112;8.616;2023-08-07T03:26:14;4.73;;;2.30;;
27744;SDS011;61387;48.112;8.616;2023-08-07T03:28:40;6.00;;;2.60;;
27744;SDS011;61387;48.112;8.616;2023-08-07T03:31:06;6.40;;;2.43;;
27744;SDS011;61387;48.112;8.616;2023-08-07T03:33:31;4.67;;;2.07;;
27744;SDS011;61387;48.112;8.616;2023-08-07T03:35:57;5.73;;;2.27;;
27744;SDS011;61387;48.112;8.616;2023-08-07T03:38:23;8.17;;;2.50;;
27744;SDS011;61387;48.112;8.616;2023-08-07T03:40:49;5.53;;;3.43;;
27744;SDS011;61387;48.112;8.616;2023-08-07T03:43:15;3.90;;;2.43;;
27744;SDS011;61387;48.112;8.616;2023-08-07T03:45:41;5.77;;;2.97;;
27744;SDS011;61387;48.112;8.616;2023-08-07T03:48:07;6.00;;;2.60;;
27744;SDS011;61387;48.112;8.616;2023-08-07T03:50:34;7.03;;;2.70;;
27744;SDS011;61387;48.112;8.616;2023-08-07T03:53:02;5.93;;;3.50;;
27744;SDS011;61387;48.112;8.616;2023-08-07T03:55:27;4.43;;;2.23;;
27744;SDS011;61387;48.112;8.616;2023-08-07T03:57:53;4.97;;;2.40;;
27744;SDS011;61387;48.112;8.616;2023-08-07T04:00:19;4.90;;;2.30;;
27744;SDS011;61387;48.112;8.616;2023-08-07T04:02:45;4.50;;;2.37;;
27744;SDS011;61387;48.112;8.616;2023-08-07T04:05:11;4.27;;;1.97;;
27744;SDS011;61387;48.112;8.616;2023-08-07T04:07:37;6.57;;;2.90;;
27744;SDS011;61387;48.112;8.616;2023-08-07T04:10:03;3.03;;;2.00;;
27744;SDS011;61387;48.112;8.616;2023-08-07T04:12:29;4.30;;;2.37;;
27744;SDS011;61387;48.112;8.616;2023-08-07T04:14:55;4.80;;;1.80;;
27744;SDS011;61387;48.112;8.616;2023-08-07T04:17:21;8.37;;;2.20;;
27744;SDS011;61387;48.112;8.616;2023-08-07T04:19:47;5.63;;;2.33;;
27744;SDS011;61387;48.112;8.616;2023-08-07T04:22:13;8.03;;;2.23;;
27744;SDS011;61387;48.112;8.616;2023-08-07T04:24:39;4.77;;;2.20;;
27744;SDS011;61387;48.112;8.616;2023-08-07T04:27:04;4.23;;;2.40;;
27744;SDS011;61387;48.112;8.616;2023-08-07T04:29:30;5.23;;;2.10;;
27744;SDS011;61387;48.112;8.616;2023-08-07T04:31:56;5.37;;;2.60;;
27744;SDS011;61387;48.112;8.616;2023-08-07T04:34:22;6.40;;;2.77;;
27744;SDS011;61387;48.112;8.616;2023-08-07T04:36:47;5.40;;;2.57;;
27744;SDS011;61387;48.112;8.616;2023-08-07T04:39:15;6.67;;;2.40;;
27744;SDS011;61387;48.112;8.616;2023-08-07T04:41:41;6.60;;;2.83;;
27744;SDS011;61387;48.112;8.616;2023-08-07T04:44:07;6.33;;;2.93;;
27744;SDS011;61387;48.112;8.616;2023-08-07T04:46:33;5.00;;;2.40;;
27744;SDS011;61387;48.112;8.616;2023-08-07T04:48:59;8.60;;;3.53;;
27744;SDS011;61387;48.112;8.616;2023-08-07T04:51:26;7.17;;;3.37;;
27744;SDS011;61387;48.112;8.616;2023-08-07T04:53:53;9.57;;;3.20;;
27744;SDS011;61387;48.112;8.616;2023-08-07T04:56:21;6.10;;;3.00;;
27744;SDS011;61387;48.112;8.616;2023-08-07T04:58:47;5.97;;;3.07;;
27744;SDS011;61387;48.112;8.616;2023-08-07T05:01:13;5.87;;;2.90;;
27744;SDS011;61387;48.112;8.616;2023-08-07T05:03:39;4.73;;;2.43;;
27744;SDS011;61387;48.112;8.616;2023-08-07T05:06:05;4.90;;;2.40;;
27744;SDS011;61387;48.112;8.616;2023-08-07T05:08:31;3.90;;;2.10;;
27744;SDS011;61387;48.112;8.616;2023-08-07T05:10:56;5.15;;;2.37;;
27744;SDS011;61387;48.112;8.616;2023-08-07T05:13:22;4.77;;;2.00;;
27744;SDS011;61387;48.112;8.616;2023-08-07T05:15:48;4.03;;;2.33;;
27744;SDS011;61387;48.112;8.616;2023-08-07T05:18:15;3.40;;;2.10;;
27744;SDS011;61387;48.112;8.616;2023-08-07T05:20:41;3.07;;;2.43;;
27744;SDS011;61387;48.112;8.616;2023-08-07T05:23:07;4.87;;;2.23;;
27744;SDS011;61387;48.112;8.616;2023-08-07T05:25:33;3.30;;;1.80;;
27744;SDS011;61387;48.112;8.616;2023-08-07T05:27:59;3.03;;;1.70;;
27744;SDS011;61387;48.112;8.616;2023-08-07T05:30:24;4.70;;;1.95;;
27744;SDS011;61387;48.112;8.616;2023-08-07T05:32:50;2.60;;;1.97;;
27744;SDS011;61387;48.112;8.616;2023-08-07T05:35:16;3.23;;;1.83;;
27744;SDS011;61387;48.112;8.616;2023-08-07T05:37:42;5.33;;;1.87;;
27744;SDS011;61387;48.112;8.616;2023-08-07T05:40:08;3.93;;;2.00;;
27744;SDS011;61387;48.112;8.616;2023-08-07T05:42:36;2.73;;;1.90;;
27744;SDS011;61387;48.112;8.616;2023-08-07T05:45:03;5.30;;;2.00;;
27744;SDS011;61387;48.112;8.616;2023-08-07T05:47:28;2.27;;;1.67;;
27744;SDS011;61387;48.112;8.616;2023-08-07T05:49:54;2.47;;;1.60;;
27744;SDS011;61387;48.112;8.616;2023-08-07T05:52:20;3.87;;;1.93;;
27744;SDS011;61387;48.112;8.616;2023-08-07T05:54:46;3.35;;;1.73;;
27744;SDS011;61387;48.112;8.616;2023-08-07T05:57:12;2.83;;;1.70;;
27744;SDS011;61387;48.112;8.616;2023-08-07T05:59:38;3.33;;;1.30;;
27744;SDS011;61387;48.112;8.616;2023-08-07T06:02:05;2.53;;;1.60;;
27744;SDS011;61387;48.112;8.616;2023-08-07T06:04:31;2.13;;;1.60;;
27744;SDS011;61387;48.112;8.616;2023-08-07T06:06:57;2.40;;;1.50;;
27744;SDS011;61387;48.112;8.616;2023-08-07T06:09:23;3.07;;;1.70;;
27744;SDS011;61387;48.112;8.616;2023-08-07T06:11:48;1.87;;;1.50;;
27744;SDS011;61387;48.112;8.616;2023-08-07T06:14:14;3.23;;;1.20;;
27744;SDS011;61387;48.112;8.616;2023-08-07T06:16:40;3.10;;;1.50;;
27744;SDS011;61387;48.112;8.616;2023-08-07T06:19:05;2.70;;;1.40;;
27744;SDS011;61387;48.112;8.616;2023-08-07T06:21:32;2.83;;;1.60;;
27744;SDS011;61387;48.112;8.616;2023-08-07T06:23:58;1.30;;;1.10;;
27744;SDS011;61387;48.112;8.616;2023-08-07T06:26:23;3.53;;;1.52;;
27744;SDS011;61387;48.112;8.616;2023-08-07T06:28:49;1.53;;;1.10;;
27744;SDS011;61387;48.112;8.616;2023-08-07T06:31:15;3.60;;;1.20;;
27744;SDS011;61387;48.112;8.616;2023-08-07T06:33:41;3.73;;;1.70;;
27744;SDS011;61387;48.112;8.616;2023-08-07T06:36:07;1.80;;;1.40;;
27744;SDS011;61387;48.112;8.616;2023-08-07T06:38:36;3.60;;;1.63;;
27744;SDS011;61387;48.112;8.616;2023-08-07T06:41:02;2.40;;;1.60;;
27744;SDS011;61387;48.112;8.616;2023-08-07T06:43:28;2.23;;;1.60;;
27744;SDS011;61387;48.112;8.616;2023-08-07T06:45:54;2.60;;;1.37;;
27744;SDS011;61387;48.112;8.616;2023-08-07T06:48:20;2.77;;;1.60;;
27744;SDS011;61387;48.112;8.616;2023-08-07T06:50:50;4.07;;;2.00;;
27744;SDS011;61387;48.112;8.616;2023-08-07T06:53:16;4.37;;;1.93;;
27744;SDS011;61387;48.112;8.616;2023-08-07T06:55:42;4.67;;;1.53;;
27744;SDS011;61387;48.112;8.616;2023-08-07T06:58:08;3.83;;;1.87;;
27744;SDS011;61387;48.112;8.616;2023-08-07T07:00:35;3.67;;;1.83;;
27744;SDS011;61387;48.112;8.616;2023-08-07T07:03:01;3.33;;;1.63;;
27744;SDS011;61387;48.112;8.616;2023-08-07T07:05:27;5.10;;;2.90;;
27744;SDS011;61387;48.112;8.616;2023-08-07T07:07:53;5.13;;;2.27;;
27744;SDS011;61387;48.112;8.616;2023-08-07T07:10:19;5.13;;;2.60;;
27744;SDS011;61387;48.112;8.616;2023-08-07T07:12:45;5.00;;;2.13;;
27744;SDS011;61387;48.112;8.616;2023-08-07T07:15:12;5.03;;;2.50;;
27744;SDS011;61387;48.112;8.616;2023-08-07T07:17:38;6.03;;;2.40;;
27744;SDS011;61387;48.112;8.616;2023-08-07T07:20:04;3.20;;;1.77;;
27744;SDS011;61387;48.112;8.616;2023-08-07T07:22:30;4.87;;;1.93;;
27744;SDS011;61387;48.112;8.616;2023-08-07T07:24:56;3.90;;;2.10;;
27744;SDS011;61387;48.112;8.616;2023-08-07T07:27:22;7.00;;;2.47;;
27744;SDS011;61387;48.112;8.616;2023-08-07T07:29:51;4.83;;;2.37;;
27744;SDS011;61387;48.112;8.616;2023-08-07T07:32:17;5.83;;;2.50;;
27744;SDS011;61387;48.112;8.616;2023-08-07T07:34:43;7.80;;;3.50;;
27744;SDS011;61387;48.112;8.616;2023-08-07T07:37:09;3.60;;;1.97;;
27744;SDS011;61387;48.112;8.616;2023-08-07T07:39:35;5.70;;;2.57;;
27744;SDS011;61387;48.112;8.616;2023-08-07T07:42:01;3.93;;;2.40;;
27744;SDS011;61387;48.112;8.616;2023-08-07T07:44:29;4.67;;;2.37;;
27744;SDS011;61387;48.112;8.616;2023-08-07T07:46:55;6.67;;;2.53;;
27744;SDS011;61387;48.112;8.616;2023-08-07T07:49:20;5.53;;;2.73;;
27744;SDS011;61387;48.112;8.616;2023-08-07T07:51:46;5.70;;;1.87;;
27744;SDS011;61387;48.112;8.616;2023-08-07T07:54:13;7.60;;;3.00;;
27744;SDS011;61387;48.112;8.616;2023-08-07T07:56:39;6.47;;;2.03;;
27744;SDS011;61387;48.112;8.616;2023-08-07T07:59:05;4.33;;;2.07;;
27744;SDS011;61387;48.112;8.616;2023-08-07T08:01:31;5.60;;;2.40;;
27744;SDS011;61387;48.112;8.616;2023-08-07T08:03:56;3.83;;;1.90;;
27744;SDS011;61387;48.112;8.616;2023-08-07T08:06:22;5.67;;;2.10;;
27744;SDS011;61387;48.112;8.616;2023-08-07T08:08:48;2.90;;;1.47;;
27744;SDS011;61387;48.112;8.616;2023-08-07T08:11:14;4.33;;;2.40;;
27744;SDS011;61387;48.112;8.616;2023-08-07T08:13:40;5.67;;;2.20;;
27744;SDS011;61387;48.112;8.616;2023-08-07T08:16:06;4.63;;;1.73;;
27744;SDS011;61387;48.112;8.616;2023-08-07T08:18:32;2.90;;;1.73;;
27744;SDS011;61387;48.112;8.616;2023-08-07T08:20:58;5.47;;;1.77;;
27744;SDS011;61387;48.112;8.616;2023-08-07T08:23:24;2.37;;;1.90;;
27744;SDS011;61387;48.112;8.616;2023-08-07T08:25:49;2.97;;;1.77;;
27744;SDS011;61387;48.112;8.616;2023-08-07T08:28:16;5.40;;;1.93;;
27744;SDS011;61387;48.112;8.616;2023-08-07T08:30:42;4.00;;;1.53;;
27744;SDS011;61387;48.112;8.616;2023-08-07T08:33:08;4.33;;;1.70;;
27744;SDS011;61387;48.112;8.616;2023-08-07T08:35:37;3.13;;;1.80;;
27744;SDS011;61387;48.112;8.616;2023-08-07T08:38:03;5.07;;;1.83;;
27744;SDS011;61387;48.112;8.616;2023-08-07T08:40:29;3.70;;;1.87;;
27744;SDS011;61387;48.112;8.616;2023-08-07T08:42:55;2.43;;;1.70;;
27744;SDS011;61387;48.112;8.616;2023-08-07T08:45:23;5.00;;;2.00;;
27744;SDS011;61387;48.112;8.616;2023-08-07T08:47:51;4.43;;;1.70;;
27744;SDS011;61387;48.112;8.616;2023-08-07T08:50:17;3.20;;;1.67;;
27744;SDS011;61387;48.112;8.616;2023-08-07T08:52:44;3.60;;;1.80;;
27744;SDS011;61387;48.112;8.616;2023-08-07T08:55:10;3.80;;;1.83;;
27744;SDS011;61387;48.112;8.616;2023-08-07T08:57:37;3.83;;;1.93;;
27744;SDS011;61387;48.112;8.616;2023-08-07T09:00:05;3.20;;;1.40;;
27744;SDS011;61387;48.112;8.616;2023-08-07T09:02:41;2.97;;;1.60;;
27744;SDS011;61387;48.112;8.616;2023-08-07T09:05:08;2.53;;;1.40;;
27744;SDS011;61387;48.112;8.616;2023-08-07T09:07:34;2.83;;;1.67;;
27744;SDS011;61387;48.112;8.616;2023-08-07T09:10:01;2.87;;;1.60;;
27744;SDS011;61387;48.112;8.616;2023-08-07T09:12:29;4.07;;;1.50;;
27744;SDS011;61387;48.112;8.616;2023-08-07T09:14:57;3.43;;;1.43;;
27744;SDS011;61387;48.112;8.616;2023-08-07T09:17:24;3.73;;;1.90;;
27744;SDS011;61387;48.112;8.616;2023-08-07T09:19:54;4.00;;;1.70;;
27744;SDS011;61387;48.112;8.616;2023-08-07T09:22:20;3.40;;;1.50;;
27744;SDS011;61387;48.112;8.616;2023-08-07T09:24:46;3.43;;;1.33;;
27744;SDS011;61387;48.112;8.616;2023-08-07T09:27:12;3.42;;;1.35;;
27744;SDS011;61387;48.112;8.616;2023-08-07T09:29:43;1.63;;;1.20;;
27744;SDS011;61387;48.112;8.616;2023-08-07T09:32:11;1.97;;;1.13;;
27744;SDS011;61387;48.112;8.616;2023-08-07T09:34:38;2.87;;;1.43;;
27744;SDS011;61387;48.112;8.616;2023-08-07T09:37:04;4.47;;;1.50;;
27744;SDS011;61387;48.112;8.616;2023-08-07T09:39:31;3.30;;;1.87;;
27744;SDS011;61387;48.112;8.616;2023-08-07T09:41:57;3.60;;;1.70;;
27744;SDS011;61387;48.112;8.616;2023-08-07T09:44:23;3.07;;;1.20;;
27744;SDS011;61387;48.112;8.616;2023-08-07T09:46:48;2.10;;;1.00;;
27744;SDS011;61387;48.112;8.616;2023-08-07T09:49:14;3.63;;;1.60;;
27744;SDS011;61387;48.112;8.616;2023-08-07T09:51:44;1.20;;;0.90;;
27744;SDS011;61387;48.112;8.616;2023-08-07T09:54:11;3.27;;;1.20;;
27744;SDS011;61387;48.112;8.616;2023-08-07T09:56:37;1.97;;;1.27;;
27744;SDS011;61387;48.112;8.616;2023-08-07T09:59:05;2.37;;;1.33;;
27744;SDS011;61387;48.112;8.616;2023-08-07T10:01:31;2.03;;;1.10;;
27744;SDS011;61387;48.112;8.616;2023-08-07T10:03:57;1.83;;;1.30;;
27744;SDS011;61387;48.112;8.616;2023-08-07T10:06:23;2.27;;;1.20;;
27744;SDS011;61387;48.112;8.616;2023-08-07T10:08:49;3.03;;;1.50;;
27744;SDS011;61387;48.112;8.616;2023-08-07T10:11:15;2.77;;;1.30;;
27744;SDS011;61387;48.112;8.616;2023-08-07T10:13:43;1.70;;;1.40;;
27744;SDS011;61387;48.112;8.616;2023-08-07T10:16:10;3.97;;;1.57;;
27744;SDS011;61387;48.112;8.616;2023-08-07T10:18:37;3.63;;;1.40;;
27744;SDS011;61387;48.112;8.616;2023-08-07T10:21:04;3.50;;;1.40;;
27744;SDS011;61387;48.112;8.616;2023-08-07T10:23:32;4.00;;;1.53;;
27744;SDS011;61387;48.112;8.616;2023-08-07T10:26:01;2.97;;;1.07;;
27744;SDS011;61387;48.112;8.616;2023-08-07T10:28:33;2.00;;;1.30;;
27744;SDS011;61387;48.112;8.616;2023-08-07T10:31:03;4.40;;;1.40;;
27744;SDS011;61387;48.112;8.616;2023-08-07T10:33:30;1.63;;;1.30;;
27744;SDS011;61387;48.112;8.616;2023-08-07T10:35:57;2.53;;;1.67;;
27744;SDS011;61387;48.112;8.616;2023-08-07T10:38:27;2.27;;;1.30;;
27744;SDS011;61387;48.112;8.616;2023-08-07T10:41:12;3.43;;;1.40;;
27744;SDS011;61387;48.112;8.616;2023-08-07T10:43:39;3.70;;;1.40;;
27744;SDS011;61387;48.112;8.616;2023-08-07T10:46:06;1.90;;;1.10;;
27744;SDS011;61387;48.112;8.616;2023-08-07T10:48:37;3.00;;;1.30;;
27744;SDS011;61387;48.112;8.616;2023-08-07T10:51:03;4.37;;;1.60;;
27744;SDS011;61387;48.112;8.616;2023-08-07T10:53:30;1.90;;;1.23;;
27744;SDS011;61387;48.112;8.616;2023-08-07T10:56:01;3.23;;;1.40;;
27744;SDS011;61387;48.112;8.616;2023-08-07T10:58:33;1.90;;;1.23;;
27744;SDS011;61387;48.112;8.616;2023-08-07T11:01:15;3.07;;;1.30;;
27744;SDS011;61387;48.112;8.616;2023-08-07T11:03:42;2.17;;;1.13;;
27744;SDS011;61387;48.112;8.616;2023-08-07T11:06:09;1.97;;;1.47;;
27744;SDS011;61387;48.112;8.616;2023-08-07T11:08:35;2.90;;;1.70;;
27744;SDS011;61387;48.112;8.616;2023-08-07T11:11:05;1.60;;;1.20;;
27744;SDS011;61387;48.112;8.616;2023-08-07T11:13:32;2.07;;;1.17;;
27744;SDS011;61387;48.112;8.616;2023-08-07T11:15:58;2.13;;;1.20;;
27744;SDS011;61387;48.112;8.616;2023-08-07T11:18:25;1.73;;;1.20;;
27744;SDS011;61387;48.112;8.616;2023-08-07T11:20:51;2.60;;;1.20;;
27744;SDS011;61387;48.112;8.616;2023-08-07T11:23:22;2.50;;;1.10;;
27744;SDS011;61387;48.112;8.616;2023-08-07T11:25:52;3.17;;;1.50;;
27744;SDS011;61387;48.112;8.616;2023-08-07T11:28:21;3.43;;;1.53;;
27744;SDS011;61387;48.112;8.616;2023-08-07T11:30:48;1.83;;;1.40;;
27744;SDS011;61387;48.112;8.616;2023-08-07T11:33:17;3.07;;;1.17;;
27744;SDS011;61387;48.112;8.616;2023-08-07T11:35:44;5.53;;;1.50;;
27744;SDS011;61387;48.112;8.616;2023-08-07T11:38:10;2.17;;;1.20;;
27744;SDS011;61387;48.112;8.616;2023-08-07T11:40:36;3.03;;;1.47;;
27744;SDS011;61387;48.112;8.616;2023-08-07T11:43:02;3.67;;;1.20;;
27744;SDS011;61387;48.112;8.616;2023-08-07T11:45:28;2.87;;;1.37;;
27744;SDS011;61387;48.112;8.616;2023-08-07T11:47:54;4.13;;;1.33;;
27744;SDS011;61387;48.112;8.616;2023-08-07T11:50:22;2.93;;;1.20;;
27744;SDS011;61387;48.112;8.616;2023-08-07T11:52:47;2.97;;;1.43;;
27744;SDS011;61387;48.112;8.616;2023-08-07T11:55:14;3.20;;;1.70;;
27744;SDS011;61387;48.112;8.616;2023-08-07T11:57:40;1.60;;;1.20;;
27744;SDS011;61387;48.112;8.616;2023-08-07T12:00:08;2.77;;;1.47;;
27744;SDS011;61387;48.112;8.616;2023-08-07T12:02:47;2.47;;;1.23;;
27744;SDS011;61387;48.112;8.616;2023-08-07T12:05:13;1.97;;;1.40;;
27744;SDS011;61387;48.112;8.616;2023-08-07T12:07:39;1.77;;;1.30;;
27744;SDS011;61387;48.112;8.616;2023-08-07T12:10:11;4.57;;;1.67;;
27744;SDS011;61387;48.112;8.616;2023-08-07T12:12:37;1.60;;;1.17;;
27744;SDS011;61387;48.112;8.616;2023-08-07T12:15:06;2.10;;;1.30;;
27744;SDS011;61387;48.112;8.616;2023-08-07T12:17:33;2.60;;;1.40;;
27744;SDS011;61387;48.112;8.616;2023-08-07T12:19:58;2.55;;;1.10;;
27744;SDS011;61387;48.112;8.616;2023-08-07T12:22:26;2.13;;;0.93;;
27744;SDS011;61387;48.112;8.616;2023-08-07T12:24:55;1.87;;;1.20;;
27744;SDS011;61387;48.112;8.616;2023-08-07T12:27:21;3.13;;;1.33;;
27744;SDS011;61387;48.112;8.616;2023-08-07T12:29:46;3.07;;;1.10;;
27744;SDS011;61387;48.112;8.616;2023-08-07T12:32:12;2.90;;;1.10;;
27744;SDS011;61387;48.112;8.616;2023-08-07T12:34:38;1.67;;;1.20;;
27744;SDS011;61387;48.112;8.616;2023-08-07T12:37:05;1.93;;;1.00;;
27744;SDS011;61387;48.112;8.616;2023-08-07T12:39:31;2.03;;;1.20;;
27744;SDS011;61387;48.112;8.616;2023-08-07T12:41:57;2.60;;;1.30;;
27744;SDS011;61387;48.112;8.616;2023-08-07T12:44:23;2.53;;;1.13;;
27744;SDS011;61387;48.112;8.616;2023-08-07T12:46:49;3.73;;;1.57;;
27744;SDS011;61387;48.112;8.616;2023-08-07T12:49:15;1.67;;;1.20;;
27744;SDS011;61387;48.112;8.616;2023-08-07T12:51:41;2.07;;;1.23;;
27744;SDS011;61387;48.112;8.616;2023-08-07T12:54:08;2.00;;;1.10;;
27744;SDS011;61387;48.112;8.616;2023-08-07T12:56:34;2.17;;;1.00;;
27744;SDS011;61387;48.112;8.616;2023-08-07T12:59:01;2.17;;;1.30;;
27744;SDS011;61387;48.112;8.616;2023-08-07T13:01:27;1.03;;;0.93;;
27744;SDS011;61387;48.112;8.616;2023-08-07T13:03:53;2.20;;;1.10;;
27744;SDS011;61387;48.112;8.616;2023-08-07T13:06:19;2.43;;;1.03;;
27744;SDS011;61387;48.112;8.616;2023-08-07T13:08:45;2.60;;;1.30;;
27744;SDS011;61387;48.112;8.616;2023-08-07T13:11:11;2.90;;;1.40;;
27744;SDS011;61387;48.112;8.616;2023-08-07T13:13:36;2.60;;;1.40;;
27744;SDS011;61387;48.112;8.616;2023-08-07T13:16:03;2.07;;;1.20;;
27744;SDS011;61387;48.112;8.616;2023-08-07T13:18:29;1.87;;;1.23;;
27744;SDS011;61387;48.112;8.616;2023-08-07T13:20:55;2.83;;;1.30;;
27744;SDS011;61387;48.112;8.616;2023-08-07T13:23:21;2.57;;;1.17;;
27744;SDS011;61387;48.112;8.616;2023-08-07T13:25:47;5.33;;;1.17;;
27744;SDS011;61387;48.112;8.616;2023-08-07T13:28:13;3.17;;;1.33;;
27744;SDS011;61387;48.112;8.616;2023-08-07T13:30:39;1.60;;;1.07;;
27744;SDS011;61387;48.112;8.616;2023-08-07T13:33:06;2.10;;;1.40;;
27744;SDS011;61387;48.112;8.616;2023-08-07T13:35:32;4.23;;;1.60;;
27744;SDS011;61387;48.112;8.616;2023-08-07T13:38:00;4.73;;;1.80;;
27744;SDS011;61387;48.112;8.616;2023-08-07T13:40:30;3.63;;;1.10;;
27744;SDS011;61387;48.112;8.616;2023-08-07T13:42:55;1.90;;;1.20;;
27744;SDS011;61387;48.112;8.616;2023-08-07T13:45:21;3.13;;;1.07;;
27744;SDS011;61387;48.112;8.616;2023-08-07T13:47:47;1.50;;;1.00;;
27744;SDS011;61387;48.112;8.616;2023-08-07T13:50:13;3.50;;;1.70;;
27744;SDS011;61387;48.112;8.616;2023-08-07T13:52:39;2.83;;;1.30;;
27744;SDS011;61387;48.112;8.616;2023-08-07T13:55:05;2.07;;;1.30;;
27744;SDS011;61387;48.112;8.616;2023-08-07T13:57:31;1.77;;;1.23;;
27744;SDS011;61387;48.112;8.616;2023-08-07T13:59:56;1.53;;;1.03;;
27744;SDS011;61387;48.112;8.616;2023-08-07T14:02:22;2.07;;;1.27;;
27744;SDS011;61387;48.112;8.616;2023-08-07T14:04:48;3.17;;;1.20;;
27744;SDS011;61387;48.112;8.616;2023-08-07T14:07:14;1.50;;;1.07;;
27744;SDS011;61387;48.112;8.616;2023-08-07T14:09:40;1.80;;;1.20;;
27744;SDS011;61387;48.112;8.616;2023-08-07T14:12:06;3.77;;;1.30;;
27744;SDS011;61387;48.112;8.616;2023-08-07T14:14:32;2.93;;;1.47;;
27744;SDS011;61387;48.112;8.616;2023-08-07T14:16:57;1.97;;;1.10;;
27744;SDS011;61387;48.112;8.616;2023-08-07T14:19:25;1.80;;;1.20;;
27744;SDS011;61387;48.112;8.616;2023-08-07T14:21:51;1.67;;;1.33;;
27744;SDS011;61387;48.112;8.616;2023-08-07T14:24:17;3.20;;;1.20;;
27744;SDS011;61387;48.112;8.616;2023-08-07T14:26:43;3.77;;;1.30;;
27744;SDS011;61387;48.112;8.616;2023-08-07T14:29:09;2.33;;;1.10;;
27744;SDS011;61387;48.112;8.616;2023-08-07T14:31:35;1.40;;;0.80;;
27744;SDS011;61387;48.112;8.616;2023-08-07T14:34:01;1.93;;;1.20;;
27744;SDS011;61387;48.112;8.616;2023-08-07T14:36:27;2.70;;;1.30;;
27744;SDS011;61387;48.112;8.616;2023-08-07T14:38:53;2.53;;;1.27;;
27744;SDS011;61387;48.112;8.616;2023-08-07T14:41:19;1.53;;;1.10;;
27744;SDS011;61387;48.112;8.616;2023-08-07T14:43:45;1.93;;;1.10;;
27744;SDS011;61387;48.112;8.616;2023-08-07T14:46:12;2.97;;;1.05;;
27744;SDS011;61387;48.112;8.616;2023-08-07T14:48:38;3.47;;;1.50;;